NAP weather

Naples International Airport
NĂ¡poli, Campania, Italy

Public forecast

Using degrees Celsius for public forecast. Weather courtesy of forecast.io.

METAR (pilot weather report)

Retrieved 2019/05/20 23:20 UTC (34 minutes ago):

LIRN 202320Z 23004KT 9999 SCT025 SCT080 15/11 Q1013 NOSIG

TAF (pilot weather forecast)

Retrieved 2019/05/20 18:21 UTC (6 hours ago):

TAF LIRN 201700Z 2018/2118 24008KT 9999 BKN030 TEMPO 2020/2024 SHRA